Flight Information

DEPARTURE
SANTA MARIA, CA
Elevation:
261
Runways:
2/20 - 5199x75 - ASPH-G
12/30 - 8004x150 - ASPH-G
Active PE Departure:
30
Current PE ATIS:
R
Altimeter:
30.19
Remarks:
ATIS:
121.15 805-347-9136
Ground:
121.9
Tower:
118.3
DESTINATION
,
Elevation:
TPA:
1000 (est.)


6873.7 NM71° True-14° Var57° HDG

Flight Plan:
(click to file on line)

1. Type
2. Aircraft Identification
3. Aircraft Type / Special Equipment
4. True Airspeed
kts
5. Departure Airport
(ICAO code)
6. Arriving Airport
(ICAO code)
7. Cruising Altitude
ft
8. Alternate Airport
(ICAO code)
9. Route of Flight
10. Remarks


00:00:00 Departure ATIS: Destination ATIS:

Clearance Limit:
Route:
Altitude: Expect in minutes
Frequency:
Transponder: (7500 Hijack / 7600 Lost Comms / 7700 Emergency)


KSMX 282151Z 30012KT 10SM CLR 21/02 A3019 RMK AO2 SLP226 T02110022
Time: 2022-01-28T21:51:00Z
1643407638
Winds: 300 @ 12 kts
Visibility: 10.0 sm
Clouds (AGL): CLR
Temperature: 21.1 C
Dew Point: 2.2 C
Pressure: 30.188976 in Hgbr


Notes:

Data extracted from FAA Digital Chart Supplement. Effective: 0901Z Thursday, DEC 2, 2021 to 0901Z Thursday, JAN 27, 2022
Current ATIS data is provided courtisy of PilotEdge.